sensor_id;sensor_type;location;lat;lon;timestamp;temperature;humidity
53208;DHT22;39093;52.788;6.940;2023-08-07T00:01:23;15.00;99.90
53208;DHT22;39093;52.788;6.940;2023-08-07T00:03:50;14.90;99.90
53208;DHT22;39093;52.788;6.940;2023-08-07T00:06:17;14.90;99.90
53208;DHT22;39093;52.788;6.940;2023-08-07T00:08:44;14.90;99.90
53208;DHT22;39093;52.788;6.940;2023-08-07T00:11:11;15.00;99.90
53208;DHT22;39093;52.788;6.940;2023-08-07T00:13:38;15.00;99.90
53208;DHT22;39093;52.788;6.940;2023-08-07T00:16:05;15.00;99.90
53208;DHT22;39093;52.788;6.940;2023-08-07T00:18:32;15.00;99.90
53208;DHT22;39093;52.788;6.940;2023-08-07T00:20:59;15.00;99.90
53208;DHT22;39093;52.788;6.940;2023-08-07T00:23:26;15.00;99.90
53208;DHT22;39093;52.788;6.940;2023-08-07T00:25:53;15.00;99.90
53208;DHT22;39093;52.788;6.940;2023-08-07T00:28:19;15.00;99.90
53208;DHT22;39093;52.788;6.940;2023-08-07T00:30:46;15.00;99.90
53208;DHT22;39093;52.788;6.940;2023-08-07T00:33:13;14.90;99.90
53208;DHT22;39093;52.788;6.940;2023-08-07T00:35:40;15.00;99.90
53208;DHT22;39093;52.788;6.940;2023-08-07T00:38:07;15.00;99.90
53208;DHT22;39093;52.788;6.940;2023-08-07T00:40:38;15.00;99.90
53208;DHT22;39093;52.788;6.940;2023-08-07T00:43:06;15.00;99.90
53208;DHT22;39093;52.788;6.940;2023-08-07T00:45:43;15.00;99.90
53208;DHT22;39093;52.788;6.940;2023-08-07T00:48:12;15.00;99.90
53208;DHT22;39093;52.788;6.940;2023-08-07T00:50:40;15.00;99.90
53208;DHT22;39093;52.788;6.940;2023-08-07T00:53:13;15.10;99.90
53208;DHT22;39093;52.788;6.940;2023-08-07T00:55:41;15.10;99.90
53208;DHT22;39093;52.788;6.940;2023-08-07T00:58:09;15.10;99.90
53208;DHT22;39093;52.788;6.940;2023-08-07T01:00:36;15.00;99.90
53208;DHT22;39093;52.788;6.940;2023-08-07T01:03:05;15.10;99.90
53208;DHT22;39093;52.788;6.940;2023-08-07T01:05:35;15.10;99.90
53208;DHT22;39093;52.788;6.940;2023-08-07T01:08:03;15.10;99.90
53208;DHT22;39093;52.788;6.940;2023-08-07T01:13:31;15.10;99.90
53208;DHT22;39093;52.788;6.940;2023-08-07T01:16:02;15.00;99.90
53208;DHT22;39093;52.788;6.940;2023-08-07T01:18:35;15.10;99.90
53208;DHT22;39093;52.788;6.940;2023-08-07T01:21:03;15.10;99.90
53208;DHT22;39093;52.788;6.940;2023-08-07T01:23:30;15.10;99.90
53208;DHT22;39093;52.788;6.940;2023-08-07T01:25:57;15.00;99.90
53208;DHT22;39093;52.788;6.940;2023-08-07T01:28:36;15.00;99.90
53208;DHT22;39093;52.788;6.940;2023-08-07T01:31:10;15.00;99.90
53208;DHT22;39093;52.788;6.940;2023-08-07T01:33:48;15.00;99.90
53208;DHT22;39093;52.788;6.940;2023-08-07T01:36:18;15.00;99.90
53208;DHT22;39093;52.788;6.940;2023-08-07T01:38:47;14.90;99.90
53208;DHT22;39093;52.788;6.940;2023-08-07T01:41:15;14.90;99.90
53208;DHT22;39093;52.788;6.940;2023-08-07T01:43:42;14.90;99.90
53208;DHT22;39093;52.788;6.940;2023-08-07T01:46:10;14.90;99.90
53208;DHT22;39093;52.788;6.940;2023-08-07T01:48:37;14.90;99.90
53208;DHT22;39093;52.788;6.940;2023-08-07T01:51:04;14.90;99.90
53208;DHT22;39093;52.788;6.940;2023-08-07T01:53:31;14.90;99.90
53208;DHT22;39093;52.788;6.940;2023-08-07T01:55:58;14.90;99.90
53208;DHT22;39093;52.788;6.940;2023-08-07T01:58:28;14.90;99.90
53208;DHT22;39093;52.788;6.940;2023-08-07T02:00:55;14.90;99.90
53208;DHT22;39093;52.788;6.940;2023-08-07T02:03:22;14.80;99.90
53208;DHT22;39093;52.788;6.940;2023-08-07T02:05:49;14.90;99.90
53208;DHT22;39093;52.788;6.940;2023-08-07T02:08:16;14.90;99.90
53208;DHT22;39093;52.788;6.940;2023-08-07T02:10:43;14.80;99.90
53208;DHT22;39093;52.788;6.940;2023-08-07T02:13:10;14.80;99.90
53208;DHT22;39093;52.788;6.940;2023-08-07T02:15:37;14.90;99.90
53208;DHT22;39093;52.788;6.940;2023-08-07T02:18:04;14.80;99.90
53208;DHT22;39093;52.788;6.940;2023-08-07T02:20:31;14.90;99.90
53208;DHT22;39093;52.788;6.940;2023-08-07T02:22:57;14.90;99.90
53208;DHT22;39093;52.788;6.940;2023-08-07T02:25:24;14.90;99.90
53208;DHT22;39093;52.788;6.940;2023-08-07T02:27:51;14.90;99.90
53208;DHT22;39093;52.788;6.940;2023-08-07T02:30:18;14.90;99.90
53208;DHT22;39093;52.788;6.940;2023-08-07T02:32:45;14.90;99.90
53208;DHT22;39093;52.788;6.940;2023-08-07T02:35:13;14.90;99.90
53208;DHT22;39093;52.788;6.940;2023-08-07T02:37:40;14.80;99.90
53208;DHT22;39093;52.788;6.940;2023-08-07T02:40:07;14.80;99.90
53208;DHT22;39093;52.788;6.940;2023-08-07T02:42:34;14.80;99.90
53208;DHT22;39093;52.788;6.940;2023-08-07T02:45:01;14.80;99.90
53208;DHT22;39093;52.788;6.940;2023-08-07T02:47:28;14.80;99.90
53208;DHT22;39093;52.788;6.940;2023-08-07T02:49:55;14.80;99.90
53208;DHT22;39093;52.788;6.940;2023-08-07T02:52:22;14.80;99.90
53208;DHT22;39093;52.788;6.940;2023-08-07T02:54:49;14.90;99.90
53208;DHT22;39093;52.788;6.940;2023-08-07T02:57:15;14.80;99.90
53208;DHT22;39093;52.788;6.940;2023-08-07T02:59:42;14.80;99.90
53208;DHT22;39093;52.788;6.940;2023-08-07T03:02:09;14.80;99.90
53208;DHT22;39093;52.788;6.940;2023-08-07T03:04:36;14.80;99.90
53208;DHT22;39093;52.788;6.940;2023-08-07T03:07:03;14.80;99.90
53208;DHT22;39093;52.788;6.940;2023-08-07T03:09:32;14.80;99.90
53208;DHT22;39093;52.788;6.940;2023-08-07T03:11:58;14.70;99.90
53208;DHT22;39093;52.788;6.940;2023-08-07T03:14:31;14.70;99.90
53208;DHT22;39093;52.788;6.940;2023-08-07T03:16:58;14.70;99.90
53208;DHT22;39093;52.788;6.940;2023-08-07T03:19:25;14.70;99.90
53208;DHT22;39093;52.788;6.940;2023-08-07T03:21:52;14.70;99.90
53208;DHT22;39093;52.788;6.940;2023-08-07T03:24:18;14.70;99.90
53208;DHT22;39093;52.788;6.940;2023-08-07T03:26:45;14.70;99.90
53208;DHT22;39093;52.788;6.940;2023-08-07T03:29:14;14.70;99.90
53208;DHT22;39093;52.788;6.940;2023-08-07T03:31:41;14.70;99.90
53208;DHT22;39093;52.788;6.940;2023-08-07T03:34:10;14.70;99.90
53208;DHT22;39093;52.788;6.940;2023-08-07T03:36:37;14.70;99.90
53208;DHT22;39093;52.788;6.940;2023-08-07T03:39:04;14.60;99.90
53208;DHT22;39093;52.788;6.940;2023-08-07T03:41:31;14.70;99.90
53208;DHT22;39093;52.788;6.940;2023-08-07T03:43:58;14.60;99.90
53208;DHT22;39093;52.788;6.940;2023-08-07T03:46:25;14.60;99.90
53208;DHT22;39093;52.788;6.940;2023-08-07T03:48:52;14.70;99.90
53208;DHT22;39093;52.788;6.940;2023-08-07T03:51:19;14.60;99.90
53208;DHT22;39093;52.788;6.940;2023-08-07T03:53:46;14.60;99.90
53208;DHT22;39093;52.788;6.940;2023-08-07T03:56:12;14.60;99.90
53208;DHT22;39093;52.788;6.940;2023-08-07T03:58:39;14.50;99.90
53208;DHT22;39093;52.788;6.940;2023-08-07T04:01:09;14.60;99.90
53208;DHT22;39093;52.788;6.940;2023-08-07T04:03:37;14.50;99.90
53208;DHT22;39093;52.788;6.940;2023-08-07T04:06:05;14.50;99.90
53208;DHT22;39093;52.788;6.940;2023-08-07T04:08:33;14.50;99.90
53208;DHT22;39093;52.788;6.940;2023-08-07T04:11:04;14.50;99.90
53208;DHT22;39093;52.788;6.940;2023-08-07T04:13:32;14.50;99.90
53208;DHT22;39093;52.788;6.940;2023-08-07T04:15:59;14.40;99.90
53208;DHT22;39093;52.788;6.940;2023-08-07T04:18:28;14.40;99.90
53208;DHT22;39093;52.788;6.940;2023-08-07T04:20:56;14.40;99.90
53208;DHT22;39093;52.788;6.940;2023-08-07T04:23:23;14.40;99.90
53208;DHT22;39093;52.788;6.940;2023-08-07T04:25:51;14.40;99.90
53208;DHT22;39093;52.788;6.940;2023-08-07T04:28:19;14.40;99.90
53208;DHT22;39093;52.788;6.940;2023-08-07T04:30:49;14.50;99.90
53208;DHT22;39093;52.788;6.940;2023-08-07T04:33:18;14.40;99.90
53208;DHT22;39093;52.788;6.940;2023-08-07T04:35:45;14.40;99.90
53208;DHT22;39093;52.788;6.940;2023-08-07T04:38:16;14.50;99.90
53208;DHT22;39093;52.788;6.940;2023-08-07T04:40:48;14.50;99.90
53208;DHT22;39093;52.788;6.940;2023-08-07T04:43:16;14.50;99.90
53208;DHT22;39093;52.788;6.940;2023-08-07T04:45:43;14.50;99.90
53208;DHT22;39093;52.788;6.940;2023-08-07T04:48:13;14.50;99.90
53208;DHT22;39093;52.788;6.940;2023-08-07T04:50:40;14.60;99.90
53208;DHT22;39093;52.788;6.940;2023-08-07T04:53:07;14.60;99.90
53208;DHT22;39093;52.788;6.940;2023-08-07T04:55:34;14.60;99.90
53208;DHT22;39093;52.788;6.940;2023-08-07T04:58:01;14.60;99.90
53208;DHT22;39093;52.788;6.940;2023-08-07T05:00:28;14.60;99.90
53208;DHT22;39093;52.788;6.940;2023-08-07T05:02:55;14.60;99.90
53208;DHT22;39093;52.788;6.940;2023-08-07T05:05:23;14.60;99.90
53208;DHT22;39093;52.788;6.940;2023-08-07T05:07:50;14.60;99.90
53208;DHT22;39093;52.788;6.940;2023-08-07T05:10:18;14.60;99.90
53208;DHT22;39093;52.788;6.940;2023-08-07T05:12:45;14.60;99.90
53208;DHT22;39093;52.788;6.940;2023-08-07T05:15:12;14.60;99.90
53208;DHT22;39093;52.788;6.940;2023-08-07T05:17:39;14.50;99.90
53208;DHT22;39093;52.788;6.940;2023-08-07T05:20:10;14.50;99.90
53208;DHT22;39093;52.788;6.940;2023-08-07T05:22:37;14.50;99.90
53208;DHT22;39093;52.788;6.940;2023-08-07T05:25:07;14.50;99.90
53208;DHT22;39093;52.788;6.940;2023-08-07T05:27:35;14.50;99.90
53208;DHT22;39093;52.788;6.940;2023-08-07T05:30:03;14.50;99.90
53208;DHT22;39093;52.788;6.940;2023-08-07T05:32:30;14.60;99.90
53208;DHT22;39093;52.788;6.940;2023-08-07T05:35:00;14.50;99.90
53208;DHT22;39093;52.788;6.940;2023-08-07T05:37:27;14.60;99.90
53208;DHT22;39093;52.788;6.940;2023-08-07T05:39:56;14.60;99.90
53208;DHT22;39093;52.788;6.940;2023-08-07T05:42:23;14.70;99.90
53208;DHT22;39093;52.788;6.940;2023-08-07T05:44:50;14.80;99.90
53208;DHT22;39093;52.788;6.940;2023-08-07T05:47:17;14.90;99.90
53208;DHT22;39093;52.788;6.940;2023-08-07T05:49:44;14.90;99.90
53208;DHT22;39093;52.788;6.940;2023-08-07T05:52:11;15.00;99.90
53208;DHT22;39093;52.788;6.940;2023-08-07T05:54:38;15.00;99.90
53208;DHT22;39093;52.788;6.940;2023-08-07T05:57:06;15.00;99.90
53208;DHT22;39093;52.788;6.940;2023-08-07T05:59:33;14.90;99.90
53208;DHT22;39093;52.788;6.940;2023-08-07T06:02:03;14.90;99.90
53208;DHT22;39093;52.788;6.940;2023-08-07T06:04:31;14.90;99.90
53208;DHT22;39093;52.788;6.940;2023-08-07T06:06:58;14.90;99.90
53208;DHT22;39093;52.788;6.940;2023-08-07T06:09:25;14.90;99.90
53208;DHT22;39093;52.788;6.940;2023-08-07T06:11:52;14.90;99.90
53208;DHT22;39093;52.788;6.940;2023-08-07T06:14:20;14.90;99.90
53208;DHT22;39093;52.788;6.940;2023-08-07T06:16:47;14.80;99.90
53208;DHT22;39093;52.788;6.940;2023-08-07T06:19:15;14.80;99.90
53208;DHT22;39093;52.788;6.940;2023-08-07T06:21:57;14.80;99.90
53208;DHT22;39093;52.788;6.940;2023-08-07T06:24:25;14.80;99.90
53208;DHT22;39093;52.788;6.940;2023-08-07T06:26:52;14.80;99.90
53208;DHT22;39093;52.788;6.940;2023-08-07T06:29:22;14.80;99.90
53208;DHT22;39093;52.788;6.940;2023-08-07T06:31:49;14.80;99.90
53208;DHT22;39093;52.788;6.940;2023-08-07T06:34:16;14.80;99.90
53208;DHT22;39093;52.788;6.940;2023-08-07T06:36:43;14.80;99.90
53208;DHT22;39093;52.788;6.940;2023-08-07T06:39:10;14.80;99.90
53208;DHT22;39093;52.788;6.940;2023-08-07T06:41:37;14.90;99.90
53208;DHT22;39093;52.788;6.940;2023-08-07T06:44:05;14.90;99.90
53208;DHT22;39093;52.788;6.940;2023-08-07T06:46:32;14.90;99.90
53208;DHT22;39093;52.788;6.940;2023-08-07T06:48:59;14.90;99.90
53208;DHT22;39093;52.788;6.940;2023-08-07T06:51:26;15.00;99.90
53208;DHT22;39093;52.788;6.940;2023-08-07T06:53:53;14.90;99.90
53208;DHT22;39093;52.788;6.940;2023-08-07T06:56:20;14.90;99.90
53208;DHT22;39093;52.788;6.940;2023-08-07T06:58:47;14.90;99.90
53208;DHT22;39093;52.788;6.940;2023-08-07T07:01:14;14.90;99.90
53208;DHT22;39093;52.788;6.940;2023-08-07T07:03:41;15.00;99.90
53208;DHT22;39093;52.788;6.940;2023-08-07T07:06:08;15.20;99.90
53208;DHT22;39093;52.788;6.940;2023-08-07T07:08:35;15.30;99.90
53208;DHT22;39093;52.788;6.940;2023-08-07T07:11:02;15.30;99.90
53208;DHT22;39093;52.788;6.940;2023-08-07T07:13:31;15.40;99.90
53208;DHT22;39093;52.788;6.940;2023-08-07T07:15:58;15.40;99.90
53208;DHT22;39093;52.788;6.940;2023-08-07T07:18:25;15.30;99.90
53208;DHT22;39093;52.788;6.940;2023-08-07T07:20:58;15.20;99.90
53208;DHT22;39093;52.788;6.940;2023-08-07T07:23:27;15.20;99.90
53208;DHT22;39093;52.788;6.940;2023-08-07T07:25:54;15.20;99.90
53208;DHT22;39093;52.788;6.940;2023-08-07T07:28:21;15.20;99.90
53208;DHT22;39093;52.788;6.940;2023-08-07T07:30:52;15.40;99.90
53208;DHT22;39093;52.788;6.940;2023-08-07T07:33:19;15.60;99.90
53208;DHT22;39093;52.788;6.940;2023-08-07T07:35:46;16.00;99.90
53208;DHT22;39093;52.788;6.940;2023-08-07T07:38:13;16.20;99.90
53208;DHT22;39093;52.788;6.940;2023-08-07T07:40:42;16.30;99.90
53208;DHT22;39093;52.788;6.940;2023-08-07T07:43:09;16.40;99.90
53208;DHT22;39093;52.788;6.940;2023-08-07T07:45:38;16.30;99.90
53208;DHT22;39093;52.788;6.940;2023-08-07T07:48:05;16.30;99.90
53208;DHT22;39093;52.788;6.940;2023-08-07T07:50:36;16.30;99.90
53208;DHT22;39093;52.788;6.940;2023-08-07T07:53:03;16.30;99.90
53208;DHT22;39093;52.788;6.940;2023-08-07T07:55:30;16.40;99.90
53208;DHT22;39093;52.788;6.940;2023-08-07T07:57:57;16.40;99.90
53208;DHT22;39093;52.788;6.940;2023-08-07T08:00:24;16.50;99.90
53208;DHT22;39093;52.788;6.940;2023-08-07T08:02:53;16.50;99.90
53208;DHT22;39093;52.788;6.940;2023-08-07T08:05:21;16.60;99.90
53208;DHT22;39093;52.788;6.940;2023-08-07T08:07:48;16.70;99.90
53208;DHT22;39093;52.788;6.940;2023-08-07T08:10:15;16.60;99.90
53208;DHT22;39093;52.788;6.940;2023-08-07T08:12:43;16.60;99.90
53208;DHT22;39093;52.788;6.940;2023-08-07T08:15:10;16.40;99.90
53208;DHT22;39093;52.788;6.940;2023-08-07T08:17:37;16.40;99.90
53208;DHT22;39093;52.788;6.940;2023-08-07T08:20:05;16.40;99.90
53208;DHT22;39093;52.788;6.940;2023-08-07T08:22:32;16.50;99.90
53208;DHT22;39093;52.788;6.940;2023-08-07T08:25:00;16.60;99.90
53208;DHT22;39093;52.788;6.940;2023-08-07T08:27:26;16.50;99.90
53208;DHT22;39093;52.788;6.940;2023-08-07T08:29:55;16.50;99.90
53208;DHT22;39093;52.788;6.940;2023-08-07T08:32:22;16.50;99.90
53208;DHT22;39093;52.788;6.940;2023-08-07T08:34:49;16.40;99.90
53208;DHT22;39093;52.788;6.940;2023-08-07T08:37:17;16.50;99.90
53208;DHT22;39093;52.788;6.940;2023-08-07T08:39:44;16.50;99.90
53208;DHT22;39093;52.788;6.940;2023-08-07T08:42:11;16.50;99.90
53208;DHT22;39093;52.788;6.940;2023-08-07T08:44:45;16.50;99.90
53208;DHT22;39093;52.788;6.940;2023-08-07T08:47:14;16.60;99.90
53208;DHT22;39093;52.788;6.940;2023-08-07T08:50:01;16.60;99.90
53208;DHT22;39093;52.788;6.940;2023-08-07T08:52:32;16.70;99.90
53208;DHT22;39093;52.788;6.940;2023-08-07T08:55:02;16.80;99.90
53208;DHT22;39093;52.788;6.940;2023-08-07T08:57:33;16.70;99.90
53208;DHT22;39093;52.788;6.940;2023-08-07T09:00:07;16.30;99.90
53208;DHT22;39093;52.788;6.940;2023-08-07T09:02:51;15.90;99.90
53208;DHT22;39093;52.788;6.940;2023-08-07T09:05:20;15.50;99.90
53208;DHT22;39093;52.788;6.940;2023-08-07T09:07:48;15.50;99.90
53208;DHT22;39093;52.788;6.940;2023-08-07T09:10:16;15.30;99.90
53208;DHT22;39093;52.788;6.940;2023-08-07T09:13:04;15.30;99.90
53208;DHT22;39093;52.788;6.940;2023-08-07T09:15:36;15.40;99.90
53208;DHT22;39093;52.788;6.940;2023-08-07T09:18:06;15.70;99.90
53208;DHT22;39093;52.788;6.940;2023-08-07T09:20:37;15.90;99.90
53208;DHT22;39093;52.788;6.940;2023-08-07T09:23:08;16.00;99.90
53208;DHT22;39093;52.788;6.940;2023-08-07T09:25:35;16.20;99.90
53208;DHT22;39093;52.788;6.940;2023-08-07T09:28:04;16.30;99.90
53208;DHT22;39093;52.788;6.940;2023-08-07T09:30:34;16.40;99.90
53208;DHT22;39093;52.788;6.940;2023-08-07T09:33:01;16.50;99.90
53208;DHT22;39093;52.788;6.940;2023-08-07T09:35:30;16.60;99.90
53208;DHT22;39093;52.788;6.940;2023-08-07T09:37:58;16.60;99.90
53208;DHT22;39093;52.788;6.940;2023-08-07T09:40:29;16.80;99.90
53208;DHT22;39093;52.788;6.940;2023-08-07T09:43:00;16.80;99.90
53208;DHT22;39093;52.788;6.940;2023-08-07T09:45:28;16.70;99.90
53208;DHT22;39093;52.788;6.940;2023-08-07T09:48:01;16.70;99.90
53208;DHT22;39093;52.788;6.940;2023-08-07T09:50:29;16.60;99.90
53208;DHT22;39093;52.788;6.940;2023-08-07T09:52:57;16.50;99.90
53208;DHT22;39093;52.788;6.940;2023-08-07T09:55:27;16.60;99.90
53208;DHT22;39093;52.788;6.940;2023-08-07T09:57:54;16.70;99.90
53208;DHT22;39093;52.788;6.940;2023-08-07T10:00:21;16.90;99.90
53208;DHT22;39093;52.788;6.940;2023-08-07T10:02:50;17.00;99.90
53208;DHT22;39093;52.788;6.940;2023-08-07T10:05:17;17.20;99.90
53208;DHT22;39093;52.788;6.940;2023-08-07T10:07:46;17.20;99.90
53208;DHT22;39093;52.788;6.940;2023-08-07T10:10:14;17.30;99.90
53208;DHT22;39093;52.788;6.940;2023-08-07T10:12:41;17.30;99.90
53208;DHT22;39093;52.788;6.940;2023-08-07T10:15:09;17.30;99.90
53208;DHT22;39093;52.788;6.940;2023-08-07T10:17:36;17.30;99.90
53208;DHT22;39093;52.788;6.940;2023-08-07T10:20:03;17.30;99.90
53208;DHT22;39093;52.788;6.940;2023-08-07T10:22:32;17.30;99.90
53208;DHT22;39093;52.788;6.940;2023-08-07T10:25:01;17.20;99.90
53208;DHT22;39093;52.788;6.940;2023-08-07T10:27:32;17.20;99.90
53208;DHT22;39093;52.788;6.940;2023-08-07T10:30:02;17.20;99.90
53208;DHT22;39093;52.788;6.940;2023-08-07T10:32:32;17.20;99.90
53208;DHT22;39093;52.788;6.940;2023-08-07T10:35:03;17.10;99.90
53208;DHT22;39093;52.788;6.940;2023-08-07T10:37:43;17.20;99.90
53208;DHT22;39093;52.788;6.940;2023-08-07T10:40:12;17.20;99.90
53208;DHT22;39093;52.788;6.940;2023-08-07T10:43:17;17.30;99.90
53208;DHT22;39093;52.788;6.940;2023-08-07T10:45:44;17.50;99.90
53208;DHT22;39093;52.788;6.940;2023-08-07T10:48:18;17.80;99.90
53208;DHT22;39093;52.788;6.940;2023-08-07T10:50:57;18.00;99.90
53208;DHT22;39093;52.788;6.940;2023-08-07T10:53:32;18.20;99.90
53208;DHT22;39093;52.788;6.940;2023-08-07T10:56:08;18.10;99.90
53208;DHT22;39093;52.788;6.940;2023-08-07T10:58:37;17.90;99.90
53208;DHT22;39093;52.788;6.940;2023-08-07T11:04:05;17.60;99.90
53208;DHT22;39093;52.788;6.940;2023-08-07T11:06:33;17.50;99.90
53208;DHT22;39093;52.788;6.940;2023-08-07T11:09:02;17.70;99.90
53208;DHT22;39093;52.788;6.940;2023-08-07T11:14:09;17.70;99.90
53208;DHT22;39093;52.788;6.940;2023-08-07T11:16:36;17.90;99.90
53208;DHT22;39093;52.788;6.940;2023-08-07T11:19:04;17.80;99.90
53208;DHT22;39093;52.788;6.940;2023-08-07T11:21:32;17.70;99.90
53208;DHT22;39093;52.788;6.940;2023-08-07T11:24:01;17.60;99.90
53208;DHT22;39093;52.788;6.940;2023-08-07T11:26:28;17.60;99.90
53208;DHT22;39093;52.788;6.940;2023-08-07T11:28:55;17.50;99.90
53208;DHT22;39093;52.788;6.940;2023-08-07T11:31:23;17.30;99.90
53208;DHT22;39093;52.788;6.940;2023-08-07T11:33:56;17.20;99.90
53208;DHT22;39093;52.788;6.940;2023-08-07T11:36:24;17.10;99.90
53208;DHT22;39093;52.788;6.940;2023-08-07T11:38:52;16.90;99.90
53208;DHT22;39093;52.788;6.940;2023-08-07T11:41:19;17.00;99.90
53208;DHT22;39093;52.788;6.940;2023-08-07T11:43:46;17.10;99.90
53208;DHT22;39093;52.788;6.940;2023-08-07T11:46:15;17.40;99.90
53208;DHT22;39093;52.788;6.940;2023-08-07T11:48:43;17.80;99.90
53208;DHT22;39093;52.788;6.940;2023-08-07T11:51:11;18.20;99.90
53208;DHT22;39093;52.788;6.940;2023-08-07T11:53:40;18.50;99.90
53208;DHT22;39093;52.788;6.940;2023-08-07T11:56:09;18.60;99.90
53208;DHT22;39093;52.788;6.940;2023-08-07T11:58:39;18.50;99.90
53208;DHT22;39093;52.788;6.940;2023-08-07T12:01:09;18.40;99.90
53208;DHT22;39093;52.788;6.940;2023-08-07T12:03:37;18.10;99.90
53208;DHT22;39093;52.788;6.940;2023-08-07T12:06:09;18.00;99.90
53208;DHT22;39093;52.788;6.940;2023-08-07T12:08:41;18.20;99.90
53208;DHT22;39093;52.788;6.940;2023-08-07T12:11:10;18.10;99.90
53208;DHT22;39093;52.788;6.940;2023-08-07T12:13:44;18.10;99.90
53208;DHT22;39093;52.788;6.940;2023-08-07T12:16:13;18.20;99.90
53208;DHT22;39093;52.788;6.940;2023-08-07T12:18:46;18.30;99.90
53208;DHT22;39093;52.788;6.940;2023-08-07T12:21:22;18.50;99.90
53208;DHT22;39093;52.788;6.940;2023-08-07T12:23:51;18.60;99.90
53208;DHT22;39093;52.788;6.940;2023-08-07T12:26:21;18.50;99.90
53208;DHT22;39093;52.788;6.940;2023-08-07T12:28:48;18.40;99.90
53208;DHT22;39093;52.788;6.940;2023-08-07T12:31:17;18.40;99.90
53208;DHT22;39093;52.788;6.940;2023-08-07T12:33:45;18.70;99.90
53208;DHT22;39093;52.788;6.940;2023-08-07T12:36:12;18.90;99.90
53208;DHT22;39093;52.788;6.940;2023-08-07T12:38:44;19.10;99.90
53208;DHT22;39093;52.788;6.940;2023-08-07T12:41:14;19.30;99.90
53208;DHT22;39093;52.788;6.940;2023-08-07T12:43:44;19.30;99.90
53208;DHT22;39093;52.788;6.940;2023-08-07T12:46:11;19.40;99.90
53208;DHT22;39093;52.788;6.940;2023-08-07T12:48:40;19.30;99.90
53208;DHT22;39093;52.788;6.940;2023-08-07T12:51:08;19.10;99.90
53208;DHT22;39093;52.788;6.940;2023-08-07T12:53:36;18.90;99.90
53208;DHT22;39093;52.788;6.940;2023-08-07T12:56:03;18.60;99.90
53208;DHT22;39093;52.788;6.940;2023-08-07T12:58:31;18.30;99.90
53208;DHT22;39093;52.788;6.940;2023-08-07T13:00:58;18.10;99.90
53208;DHT22;39093;52.788;6.940;2023-08-07T13:03:25;18.00;99.90
53208;DHT22;39093;52.788;6.940;2023-08-07T13:05:52;17.90;99.90
53208;DHT22;39093;52.788;6.940;2023-08-07T13:08:19;17.80;99.90
53208;DHT22;39093;52.788;6.940;2023-08-07T13:10:47;18.10;99.90
53208;DHT22;39093;52.788;6.940;2023-08-07T13:13:16;18.20;99.90
53208;DHT22;39093;52.788;6.940;2023-08-07T13:15:43;18.30;99.90
53208;DHT22;39093;52.788;6.940;2023-08-07T13:18:10;18.30;99.90
53208;DHT22;39093;52.788;6.940;2023-08-07T13:20:37;18.40;99.90
53208;DHT22;39093;52.788;6.940;2023-08-07T13:23:05;18.40;99.90
53208;DHT22;39093;52.788;6.940;2023-08-07T13:25:33;18.40;99.90
53208;DHT22;39093;52.788;6.940;2023-08-07T13:28:02;18.30;99.90
53208;DHT22;39093;52.788;6.940;2023-08-07T13:30:33;18.20;99.90
53208;DHT22;39093;52.788;6.940;2023-08-07T13:33:03;18.00;99.90
53208;DHT22;39093;52.788;6.940;2023-08-07T13:35:31;17.90;99.90
53208;DHT22;39093;52.788;6.940;2023-08-07T13:38:00;17.90;99.90
53208;DHT22;39093;52.788;6.940;2023-08-07T13:40:31;18.10;99.90
53208;DHT22;39093;52.788;6.940;2023-08-07T13:42:58;19.00;99.90
53208;DHT22;39093;52.788;6.940;2023-08-07T13:45:29;19.60;99.90
53208;DHT22;39093;52.788;6.940;2023-08-07T13:47:56;19.90;99.90
53208;DHT22;39093;52.788;6.940;2023-08-07T13:50:23;20.00;99.90
53208;DHT22;39093;52.788;6.940;2023-08-07T13:52:50;19.90;99.90
53208;DHT22;39093;52.788;6.940;2023-08-07T13:55:34;19.60;99.90
53208;DHT22;39093;52.788;6.940;2023-08-07T13:58:01;19.80;99.90
53208;DHT22;39093;52.788;6.940;2023-08-07T14:00:28;19.70;99.90
53208;DHT22;39093;52.788;6.940;2023-08-07T14:02:55;19.50;99.90
53208;DHT22;39093;52.788;6.940;2023-08-07T14:05:22;19.30;99.90
53208;DHT22;39093;52.788;6.940;2023-08-07T14:07:49;19.20;99.90
53208;DHT22;39093;52.788;6.940;2023-08-07T14:10:16;19.20;99.90
53208;DHT22;39093;52.788;6.940;2023-08-07T14:12:45;19.60;99.90
53208;DHT22;39093;52.788;6.940;2023-08-07T14:15:13;20.60;99.90
53208;DHT22;39093;52.788;6.940;2023-08-07T14:17:40;21.60;99.90
53208;DHT22;39093;52.788;6.940;2023-08-07T14:20:07;22.20;99.90
53208;DHT22;39093;52.788;6.940;2023-08-07T14:22:35;22.40;99.90
53208;DHT22;39093;52.788;6.940;2023-08-07T14:25:03;22.50;99.90
53208;DHT22;39093;52.788;6.940;2023-08-07T14:27:31;22.40;99.90
53208;DHT22;39093;52.788;6.940;2023-08-07T14:30:00;22.60;99.90
53208;DHT22;39093;52.788;6.940;2023-08-07T14:32:36;22.10;99.90
53208;DHT22;39093;52.788;6.940;2023-08-07T14:35:04;21.50;99.90
53208;DHT22;39093;52.788;6.940;2023-08-07T14:37:35;20.80;99.90
53208;DHT22;39093;52.788;6.940;2023-08-07T14:40:02;20.20;99.90
53208;DHT22;39093;52.788;6.940;2023-08-07T14:42:29;19.70;99.90
53208;DHT22;39093;52.788;6.940;2023-08-07T14:44:58;19.50;99.90
53208;DHT22;39093;52.788;6.940;2023-08-07T14:47:25;19.40;99.90
53208;DHT22;39093;52.788;6.940;2023-08-07T14:49:52;19.30;99.90
53208;DHT22;39093;52.788;6.940;2023-08-07T14:52:21;19.20;99.90
53208;DHT22;39093;52.788;6.940;2023-08-07T14:54:48;19.30;99.90
53208;DHT22;39093;52.788;6.940;2023-08-07T14:57:15;20.10;99.90
53208;DHT22;39093;52.788;6.940;2023-08-07T14:59:42;21.20;99.90
53208;DHT22;39093;52.788;6.940;2023-08-07T15:02:09;22.10;99.90
53208;DHT22;39093;52.788;6.940;2023-08-07T15:04:36;22.50;99.00
53208;DHT22;39093;52.788;6.940;2023-08-07T15:07:03;22.60;99.90
53208;DHT22;39093;52.788;6.940;2023-08-07T15:09:30;22.70;99.50
53208;DHT22;39093;52.788;6.940;2023-08-07T15:11:57;22.70;98.00
53208;DHT22;39093;52.788;6.940;2023-08-07T15:14:24;22.20;98.90
53208;DHT22;39093;52.788;6.940;2023-08-07T15:16:51;22.20;99.10
53208;DHT22;39093;52.788;6.940;2023-08-07T15:19:18;22.20;98.40
53208;DHT22;39093;52.788;6.940;2023-08-07T15:21:45;21.60;98.60
53208;DHT22;39093;52.788;6.940;2023-08-07T15:24:12;21.40;99.20
53208;DHT22;39093;52.788;6.940;2023-08-07T15:26:39;21.40;99.70
53208;DHT22;39093;52.788;6.940;2023-08-07T15:29:06;21.90;99.40
53208;DHT22;39093;52.788;6.940;2023-08-07T15:31:33;22.50;98.70
53208;DHT22;39093;52.788;6.940;2023-08-07T15:34:00;23.00;98.60
53208;DHT22;39093;52.788;6.940;2023-08-07T15:36:27;23.50;96.50
53208;DHT22;39093;52.788;6.940;2023-08-07T15:38:54;23.60;94.80
53208;DHT22;39093;52.788;6.940;2023-08-07T15:41:21;23.70;94.90
53208;DHT22;39093;52.788;6.940;2023-08-07T15:43:48;24.00;95.00
53208;DHT22;39093;52.788;6.940;2023-08-07T15:46:18;24.10;94.00